Terminal Aerodrome Forecast
Issued by NWS

Home | Current Version | Previous Version | Text Only | Print | Product List | Glossary On
Versions: 1 2 3 4 5 6 7 8 9 10 11 12 13 14 15 16 17 18 19 20 21 22
000
FTUS43 KDLH 260300 AAA
TAFBRD
TAF AMD
KBRD 260359Z 2604/2624 26003KT P6SM SCT050
     FM260900 VRB03KT P6SM SKC
     FM261700 24011G16KT P6SM FEW080
     FM262000 24013G22KT P6SM VCSH SCT050=

USA.gov is the U.S. government's official web portal to all federal, state and local government web resources and services.